Time;durP1;ratioP1;P1;durP2;ratioP2;P2;SDS_P1;SDS_P2;PMS_P1;PMS_P2;Temp;Humidity;BMP_temperature;BMP_pressure;BME280_temperature;BME280_humidity;BME280_pressure;Samples;Min_cycle;Max_cycle;Signal;HPM_P1;HPM_P2
2021/06/10 00:00:18;;;;;;;14.00;12.10;;;;;;;12.65;89.03;94267.28;738786;39;20052;-74
2021/06/10 00:00:49;;;;;;;13.63;12.27;;;;;;;12.61;88.99;94266.19;736527;39;20098;-74
2021/06/10 00:01:20;;;;;;;13.23;11.80;;;;;;;12.60;89.29;94263.81;738123;40;20138;-74
2021/06/10 00:01:50;;;;;;;12.27;11.07;;;;;;;12.68;89.16;94266.03;735320;40;20185;-74
2021/06/10 00:02:21;;;;;;;12.75;11.45;;;;;;;12.64;89.14;94262.28;736312;40;20048;-74
2021/06/10 00:02:52;;;;;;;15.18;11.77;;;;;;;12.59;89.32;94260.41;736965;40;20067;-75
2021/06/10 00:03:22;;;;;;;13.70;12.50;;;;;;;12.57;89.49;94267.66;737948;40;20332;-76
2021/06/10 00:03:53;;;;;;;13.57;12.25;;;;;;;12.54;89.69;94268.13;739875;40;20097;-76
2021/06/10 00:04:23;;;;;;;13.30;12.10;;;;;;;12.49;89.77;94265.44;740014;40;20425;-75
2021/06/10 00:04:54;;;;;;;13.32;12.10;;;;;;;12.43;89.69;94255.94;737711;40;20043;-75
2021/06/10 00:05:27;;;;;;;14.27;12.55;;;;;;;12.49;89.96;94270.66;734893;39;20350;-75
2021/06/10 00:05:58;;;;;;;14.10;12.68;;;;;;;12.47;90.15;94266.69;736196;40;20469;-74
2021/06/10 00:06:28;;;;;;;14.23;12.90;;;;;;;12.41;90.11;94258.78;737346;40;20088;-75
2021/06/10 00:06:59;;;;;;;14.15;12.80;;;;;;;12.42;90.17;94260.34;738477;40;20060;-74
2021/06/10 00:07:29;;;;;;;14.95;13.55;;;;;;;12.41;90.31;94266.59;737221;40;20048;-75
2021/06/10 00:08:00;;;;;;;15.02;13.57;;;;;;;12.37;90.08;94267.28;742123;39;20096;-75
2021/06/10 00:08:32;;;;;;;14.65;13.38;;;;;;;12.36;90.39;94263.91;741466;39;20036;-74
2021/06/10 00:09:04;;;;;;;14.88;13.23;;;;;;;12.39;90.60;94265.25;739945;40;20501;-75
2021/06/10 00:09:35;;;;;;;14.02;12.65;;;;;;;12.37;90.45;94265.47;738898;39;20703;-75
2021/06/10 00:10:12;;;;;;;15.88;14.25;;;;;;;12.37;90.59;94267.28;740149;39;20040;-75
2021/06/10 00:10:46;;;;;;;16.33;13.13;;;;;;;12.36;90.68;94263.91;733955;40;20198;-75
2021/06/10 00:11:17;;;;;;;14.90;13.30;;;;;;;12.33;90.62;94261.75;739797;39;20060;-73
2021/06/10 00:11:47;;;;;;;14.43;13.02;;;;;;;12.44;90.30;94262.75;740629;39;20092;-76
2021/06/10 00:12:19;;;;;;;14.60;13.30;;;;;;;12.44;90.56;94265.34;741268;39;20176;-75
2021/06/10 00:12:50;;;;;;;14.30;13.02;;;;;;;12.46;90.55;94262.50;737764;40;20068;-75
2021/06/10 00:13:21;;;;;;;15.82;13.27;;;;;;;12.43;90.44;94255.94;739840;40;20049;-76
2021/06/10 00:13:51;;;;;;;13.98;12.68;;;;;;;12.41;90.44;94264.00;737077;40;20163;-74
2021/06/10 00:14:22;;;;;;;15.27;13.88;;;;;;;12.41;90.59;94264.00;735760;40;20030;-73
2021/06/10 00:14:52;;;;;;;15.18;13.13;;;;;;;12.46;90.52;94257.28;739168;39;20070;-75
2021/06/10 00:15:26;;;;;;;15.02;12.95;;;;;;;12.43;90.55;94263.75;736633;40;20464;-75
2021/06/10 00:15:58;;;;;;;14.75;13.35;;;;;;;12.41;90.61;94255.34;734818;39;20028;-74
2021/06/10 00:16:28;;;;;;;14.00;12.70;;;;;;;12.40;90.69;94257.19;738464;39;20060;-75
2021/06/10 00:16:59;;;;;;;15.18;13.55;;;;;;;12.43;90.72;94263.75;732570;39;20380;-75
2021/06/10 00:17:29;;;;;;;14.85;13.52;;;;;;;12.44;90.74;94267.97;736052;39;20032;-75
2021/06/10 00:18:00;;;;;;;15.35;13.80;;;;;;;12.43;90.71;94259.31;736781;39;20036;-75
2021/06/10 00:18:33;;;;;;;14.93;13.52;;;;;;;12.42;90.73;94256.97;737492;39;20630;-74
2021/06/10 00:19:03;;;;;;;15.20;13.80;;;;;;;12.41;90.77;94264.00;736441;40;20090;-74
2021/06/10 00:19:34;;;;;;;13.55;12.35;;;;;;;12.41;90.69;94265.78;740506;40;20044;-75
2021/06/10 00:20:07;;;;;;;14.32;13.02;;;;;;;12.40;90.80;94267.63;739821;40;20043;-75
2021/06/10 00:20:40;;;;;;;14.93;13.45;;;;;;;12.36;90.91;94263.91;739322;39;20178;-76
2021/06/10 00:21:10;;;;;;;14.80;13.50;;;;;;;12.39;90.86;94266.03;736852;40;20487;-74
2021/06/10 00:21:42;;;;;;;16.20;14.70;;;;;;;12.38;90.98;94266.25;736124;39;20241;-75
2021/06/10 00:22:12;;;;;;;14.45;13.07;;;;;;;12.36;90.88;94265.72;731712;40;20044;-75
2021/06/10 00:22:43;;;;;;;14.48;13.02;;;;;;;12.35;90.91;94266.72;735397;40;20033;-74
2021/06/10 00:23:14;;;;;;;14.20;12.80;;;;;;;12.37;90.77;94259.47;734138;40;20476;-75
2021/06/10 00:23:45;;;;;;;14.27;12.93;;;;;;;12.39;90.72;94266.03;735320;40;20049;-75
2021/06/10 00:24:15;;;;;;;16.77;13.75;;;;;;;12.37;90.65;94272.50;735472;40;20127;-74
2021/06/10 00:24:46;;;;;;;14.65;12.98;;;;;;;12.41;90.66;94264.00;737241;39;20048;-75
2021/06/10 00:25:17;;;;;;;13.60;12.40;;;;;;;12.46;90.54;94265.91;741535;39;20055;-74
2021/06/10 00:25:50;;;;;;;14.50;13.07;;;;;;;12.47;90.58;94266.69;740424;39;20074;-75
2021/06/10 00:26:20;;;;;;;14.15;12.50;;;;;;;12.47;90.42;94266.69;737841;39;20257;-74
2021/06/10 00:26:51;;;;;;;13.40;12.10;;;;;;;12.47;90.35;94272.72;736421;39;20044;-74
2021/06/10 00:27:21;;;;;;;12.95;11.65;;;;;;;12.39;90.59;94258.22;740793;40;20729;-74
2021/06/10 00:27:52;;;;;;;14.05;12.57;;;;;;;12.49;90.36;94268.03;737094;40;20049;-74
2021/06/10 00:28:22;;;;;;;13.18;11.73;;;;;;;12.46;90.51;94260.69;740940;40;20055;-74
2021/06/10 00:28:52;;;;;;;13.60;12.30;;;;;;;12.36;90.38;94250.84;738222;40;20449;-75
2021/06/10 00:29:23;;;;;;;13.80;12.43;;;;;;;12.39;90.37;94252.22;740405;39;20047;-74
2021/06/10 00:29:53;;;;;;;14.45;13.05;;;;;;;12.43;90.48;94261.94;734006;39;20236;-76
2021/06/10 00:30:24;;;;;;;14.82;13.38;;;;;;;12.43;90.62;94261.16;736547;40;20059;-74
2021/06/10 00:30:55;;;;;;;13.95;12.63;;;;;;;12.30;90.53;94245.78;734947;40;20092;-74
2021/06/10 00:31:25;;;;;;;15.68;12.98;;;;;;;12.38;90.67;94256.66;737817;40;20107;-74
2021/06/10 00:31:56;;;;;;;15.15;12.80;;;;;;;12.37;90.75;94264.69;738274;39;20511;-74
2021/06/10 00:32:26;;;;;;;13.63;12.32;;;;;;;12.37;90.87;94262.06;740045;40;20109;-73
2021/06/10 00:32:57;;;;;;;14.63;12.80;;;;;;;12.33;90.99;94255.75;739200;40;20138;-73
2021/06/10 00:33:27;;;;;;;14.45;13.00;;;;;;;12.33;91.03;94259.16;740140;40;20047;-74
2021/06/10 00:34:04;;;;;;;14.18;12.80;;;;;;;12.34;90.96;94262.53;739180;39;20145;-74
2021/06/10 00:34:38;;;;;;;14.43;12.45;;;;;;;12.32;90.95;94261.97;739475;40;20203;-75
2021/06/10 00:35:09;;;;;;;12.50;11.30;;;;;;;12.29;90.89;94246.78;738925;40;20171;-74
2021/06/10 00:35:46;;;;;;;13.00;11.73;;;;;;;12.42;90.72;94259.56;734227;40;20068;-75
2021/06/10 00:36:16;;;;;;;12.23;11.10;;;;;;;12.40;90.66;94253.78;734122;40;20157;-72
2021/06/10 00:36:46;;;;;;;12.52;11.32;;;;;;;12.43;90.53;94258.53;737178;40;20171;-74
2021/06/10 00:37:23;;;;;;;12.25;10.32;;;;;;;12.60;89.91;94266.41;739355;39;20665;-74
2021/06/10 00:37:57;;;;;;;11.93;10.70;;;;;;;12.71;89.43;94251.72;739489;39;20224;-74
2021/06/10 00:38:30;;;;;;;11.82;10.30;;;;;;;12.77;89.04;94245.56;731905;40;20077;-73
2021/06/10 00:39:01;;;;;;;10.80;9.70;;;;;;;12.89;88.70;94259.34;735256;40;20063;-73
2021/06/10 00:39:31;;;;;;;10.85;9.75;;;;;;;13.15;87.75;94259.75;736169;40;20047;-73
2021/06/10 00:40:05;;;;;;;11.13;9.50;;;;;;;13.22;87.04;94253.34;736413;39;20187;-74
2021/06/10 00:40:35;;;;;;;10.70;9.68;;;;;;;13.36;86.50;94260.88;739278;39;20043;-74
2021/06/10 00:41:06;;;;;;;10.30;9.30;;;;;;;13.40;86.21;94262.00;731463;40;20597;-74
2021/06/10 00:41:37;;;;;;;10.40;9.25;;;;;;;13.39;85.86;94263.81;728760;40;20122;-74
2021/06/10 00:42:09;;;;;;;10.07;9.20;;;;;;;13.39;85.86;94266.41;732683;40;20073;-73
2021/06/10 00:42:40;;;;;;;10.27;8.90;;;;;;;13.38;86.00;94257.00;738168;40;20044;-75
2021/06/10 00:43:10;;;;;;;11.02;9.93;;;;;;;13.19;86.21;94258.25;739430;39;20040;-74
2021/06/10 00:43:42;;;;;;;10.55;9.55;;;;;;;13.03;87.05;94262.44;738913;40;20100;-74
2021/06/10 00:45:20;;;;;;;12.70;9.70;;;;;;;12.84;87.25;94241.78;715358;40;20642;-75
2021/06/10 00:46:10;;;;;;;10.60;9.60;;;;;;;12.77;87.31;94224.69;727245;40;20740;-75
2021/06/10 00:46:40;;;;;;;11.52;10.32;;;;;;;13.14;86.74;94266.81;736660;40;20047;-75
2021/06/10 00:47:11;;;;;;;10.07;9.18;;;;;;;13.14;86.65;94263.41;734130;40;20395;-75
2021/06/10 00:47:45;;;;;;;10.85;9.85;;;;;;;13.06;86.84;94264.56;741017;39;20044;-74
2021/06/10 00:48:15;;;;;;;10.75;9.75;;;;;;;12.92;87.60;94260.69;741878;39;20043;-75
2021/06/10 00:48:46;;;;;;;11.95;10.95;;;;;;;12.84;88.11;94269.69;741176;39;20044;-74
2021/06/10 00:49:16;;;;;;;13.30;10.93;;;;;;;12.74;88.44;94265.09;741658;39;20282;-75
2021/06/10 00:49:47;;;;;;;12.93;11.73;;;;;;;12.64;89.07;94260.50;741560;39;20059;-75
2021/06/10 00:50:28;;;;;;;13.23;11.85;;;;;;;12.60;89.13;94266.41;738521;39;20068;-74
2021/06/10 00:50:59;;;;;;;13.20;12.02;;;;;;;12.62;89.41;94265.16;737430;39;20052;-75
2021/06/10 00:51:30;;;;;;;12.73;11.63;;;;;;;12.50;89.47;94247.94;741527;39;20047;-75
2021/06/10 00:52:13;;;;;;;14.05;12.65;;;;;;;12.45;89.79;94248.66;725122;39;25973;-75
2021/06/10 00:52:45;;;;;;;13.57;11.77;;;;;;;12.51;90.03;94262.59;728320;40;20056;-75
2021/06/10 00:53:21;;;;;;;13.15;11.95;;;;;;;12.59;89.79;94259.63;739331;39;20096;-75
2021/06/10 00:53:52;;;;;;;13.85;12.55;;;;;;;12.51;89.93;94263.38;740971;39;20089;-75
2021/06/10 00:54:23;;;;;;;14.05;12.60;;;;;;;12.53;90.21;94263.94;730832;40;20473;-75
2021/06/10 00:54:53;;;;;;;14.65;13.25;;;;;;;12.53;90.15;94260.56;738505;40;20583;-75
2021/06/10 00:55:25;;;;;;;14.18;12.80;;;;;;;12.49;90.45;94260.22;741345;40;20113;-75
2021/06/10 00:55:59;;;;;;;14.25;12.85;;;;;;;12.56;90.28;94260.09;739101;40;20423;-75
2021/06/10 00:56:29;;;;;;;13.82;12.43;;;;;;;12.69;89.72;94262.38;738190;40;20073;-75
2021/06/10 00:57:00;;;;;;;15.98;13.27;;;;;;;12.72;89.43;94259.31;736802;40;20029;-74
2021/06/10 00:57:31;;;;;;;13.93;12.68;;;;;;;12.71;89.38;94256.94;739218;39;20040;-74
2021/06/10 00:58:01;;;;;;;15.18;13.68;;;;;;;12.55;89.69;94251.44;737326;39;20044;-75
2021/06/10 00:58:32;;;;;;;14.60;13.07;;;;;;;12.58;90.02;94258.84;740962;40;20048;-75
2021/06/10 00:59:04;;;;;;;15.50;14.00;;;;;;;12.53;90.33;94261.34;739914;40;20110;-75
2021/06/10 00:59:34;;;;;;;15.55;13.95;;;;;;;12.51;90.33;94258.16;741165;40;20024;-74
2021/06/10 01:00:07;;;;;;;14.20;12.65;;;;;;;12.62;89.88;94267.75;739199;39;21636;-75
2021/06/10 01:00:38;;;;;;;14.65;12.52;;;;;;;12.65;89.63;94254.25;742221;39;20031;-75
2021/06/10 01:01:08;;;;;;;14.70;13.10;;;;;;;12.62;89.73;94253.94;737302;39;20070;-75
2021/06/10 01:01:39;;;;;;;13.88;12.48;;;;;;;12.70;89.46;94257.97;740115;40;20059;-75
2021/06/10 01:02:09;;;;;;;14.07;12.20;;;;;;;12.78;89.16;94258.38;738510;39;20187;-73
2021/06/10 01:02:40;;;;;;;12.98;11.77;;;;;;;12.82;88.78;94258.72;741832;39;20039;-75
2021/06/10 01:03:11;;;;;;;12.48;11.30;;;;;;;12.88;88.70;94248.13;744665;39;20050;-75
2021/06/10 01:03:41;;;;;;;12.93;11.63;;;;;;;12.93;88.31;94257.84;744861;39;20031;-75
2021/06/10 01:04:12;;;;;;;12.65;11.60;;;;;;;12.95;88.20;94258.41;744889;39;20035;-75
2021/06/10 01:04:43;;;;;;;13.20;11.82;;;;;;;12.81;88.43;94251.88;744500;39;20046;-75
2021/06/10 01:05:14;;;;;;;12.20;11.10;;;;;;;12.85;88.46;94256.41;745171;39;20050;-75
2021/06/10 01:05:50;;;;;;;12.77;11.50;;;;;;;12.90;88.08;94245.25;744452;39;20055;-75
2021/06/10 01:06:39;;;;;;;12.32;11.05;;;;;;;12.96;87.92;94254.78;742682;39;20448;-75
2021/06/10 01:07:21;;;;;;;12.82;11.13;;;;;;;13.01;87.75;94248.81;739577;39;20144;-74
2021/06/10 01:08:22;;;;;;;12.98;11.02;;;;;;;12.94;87.98;94254.22;738577;39;20036;-75
2021/06/10 01:09:18;;;;;;;12.25;10.95;;;;;;;12.87;88.21;94250.94;736094;39;20108;-74
2021/06/10 01:10:04;;;;;;;12.45;11.20;;;;;;;12.83;88.46;94255.84;740474;39;20132;-75
2021/06/10 01:10:43;;;;;;;12.45;11.35;;;;;;;12.83;88.47;94252.44;739853;39;20149;-74
2021/06/10 01:11:25;;;;;;;12.43;11.32;;;;;;;12.76;88.82;94259.66;740076;39;20178;-75
2021/06/10 01:12:11;;;;;;;12.63;11.45;;;;;;;12.68;89.15;94258.22;739019;39;20223;-74
2021/06/10 01:13:11;;;;;;;13.23;12.02;;;;;;;12.55;89.75;94246.22;740459;39;20028;-75
2021/06/10 01:14:12;;;;;;;12.70;11.52;;;;;;;12.53;89.83;94261.34;739479;40;20100;-75
2021/06/10 01:15:03;;;;;;;;;;;;;;;12.52;89.94;94251.13;740285;40;20040;-75
2021/06/10 01:15:42;;;;;;;13.52;12.20;;;;;;;12.46;89.93;94250.25;738316;40;19951;-75
2021/06/10 01:16:19;;;;;;;14.10;12.35;;;;;;;12.48;90.26;94250.03;737875;39;20071;-73
2021/06/10 01:16:53;;;;;;;13.20;11.90;;;;;;;12.59;89.67;94243.97;739858;39;20047;-74
2021/06/10 01:17:24;;;;;;;13.60;12.30;;;;;;;12.67;89.45;94251.41;735244;39;20051;-74
2021/06/10 01:17:55;;;;;;;13.35;12.15;;;;;;;12.74;89.25;94252.03;738625;39;20320;-72
2021/06/10 01:18:27;;;;;;;14.20;12.93;;;;;;;12.69;89.28;94248.56;737374;39;20047;-73
2021/06/10 01:19:02;;;;;;;12.98;11.88;;;;;;;12.66;89.50;94250.59;733323;40;20170;-76
2021/06/10 01:19:41;;;;;;;13.98;12.68;;;;;;;12.55;89.87;94248.84;733576;40;20040;-75
2021/06/10 01:20:15;;;;;;;14.30;12.90;;;;;;;12.51;90.06;94249.56;734257;40;20254;-75
2021/06/10 01:20:47;;;;;;;13.10;11.82;;;;;;;12.60;89.65;94243.72;737505;39;20330;-75
2021/06/10 01:21:20;;;;;;;13.65;11.57;;;;;;;12.70;89.39;94253.56;738933;40;20073;-75
2021/06/10 01:21:55;;;;;;;12.88;11.52;;;;;;;12.81;88.85;94251.88;739675;40;20039;-75
2021/06/10 01:22:26;;;;;;;12.48;11.23;;;;;;;12.80;88.91;94248.50;739583;40;20103;-76
2021/06/10 01:23:01;;;;;;;12.05;10.95;;;;;;;12.90;88.47;94250.47;740272;39;20167;-75
2021/06/10 01:23:37;;;;;;;12.23;11.13;;;;;;;12.97;88.34;94248.50;742020;39;20043;-74
2021/06/10 01:24:22;;;;;;;11.98;10.93;;;;;;;12.91;88.27;94244.25;742558;39;20094;-75
2021/06/10 01:25:05;;;;;;;12.40;11.07;;;;;;;12.97;88.15;94251.13;741466;39;20047;-75
2021/06/10 01:25:58;;;;;;;11.50;10.38;;;;;;;13.01;87.77;94244.38;728493;39;20040;-74
2021/06/10 01:27:05;;;;;;;11.38;10.32;;;;;;;12.88;88.08;94247.31;732844;40;20045;-76
2021/06/10 01:27:39;;;;;;;12.50;11.35;;;;;;;12.69;88.90;94251.16;725915;40;20055;-75
2021/06/10 01:28:12;;;;;;;14.05;12.55;;;;;;;12.56;89.46;94254.88;739794;40;20076;-75
2021/06/10 01:28:44;;;;;;;13.32;12.18;;;;;;;12.40;90.29;94238.13;738809;39;20105;-74
2021/06/10 01:29:16;;;;;;;14.23;12.93;;;;;;;12.36;90.46;94243.03;742563;39;23190;-73
2021/06/10 01:29:52;;;;;;;14.43;12.93;;;;;;;12.31;90.79;94253.38;736439;39;20032;-75
2021/06/10 01:30:33;;;;;;;13.35;12.05;;;;;;;12.36;90.78;94250.84;743059;39;20060;-75
2021/06/10 01:31:09;;;;;;;14.95;13.57;;;;;;;12.31;90.86;94242.16;737748;40;20391;-74
2021/06/10 01:31:40;;;;;;;13.73;12.32;;;;;;;12.28;90.86;94232.97;739319;40;20036;-75
2021/06/10 01:32:11;;;;;;;13.68;12.27;;;;;;;12.48;90.54;94242.97;739210;39;20098;-74
2021/06/10 01:32:47;;;;;;;14.98;13.50;;;;;;;12.46;90.31;94239.81;739061;40;20115;-75
2021/06/10 01:33:24;;;;;;;14.35;13.05;;;;;;;12.35;90.48;94243.25;742617;39;20467;-75
2021/06/10 01:33:58;;;;;;;19.55;13.52;;;;;;;12.30;90.81;94232.75;739737;40;20046;-75
2021/06/10 01:34:29;;;;;;;15.30;13.73;;;;;;;12.21;90.89;94235.72;740585;40;20043;-75
2021/06/10 01:35:00;;;;;;;13.73;12.40;;;;;;;12.39;90.80;94245.16;739538;40;20578;-78
2021/06/10 01:35:35;;;;;;;17.80;13.48;;;;;;;12.35;90.95;94246.69;740851;39;20043;-75
2021/06/10 01:36:08;;;;;;;16.15;13.10;;;;;;;12.33;91.12;94245.31;740516;40;20028;-75
2021/06/10 01:36:44;;;;;;;16.35;14.85;;;;;;;12.33;91.63;94245.31;739732;40;20071;-76
2021/06/10 01:37:16;;;;;;;16.88;15.10;;;;;;;12.33;91.92;94246.09;741066;40;20451;-73
2021/06/10 01:37:47;;;;;;;14.07;12.68;;;;;;;12.46;91.35;94244.25;740667;39;20032;-75
2021/06/10 01:38:20;;;;;;;12.38;11.27;;;;;;;12.66;90.34;94245.38;741272;40;20411;-75
2021/06/10 01:38:54;;;;;;;11.35;10.35;;;;;;;12.89;89.19;94247.06;739550;40;20098;-74
2021/06/10 01:39:28;;;;;;;11.75;10.68;;;;;;;13.03;88.17;94244.16;740794;40;20040;-75
2021/06/10 01:40:00;;;;;;;15.82;9.90;;;;;;;13.00;87.96;94245.44;738375;39;20048;-74
2021/06/10 01:40:31;;;;;;;12.43;11.13;;;;;;;12.93;87.83;94244.81;734637;40;20090;-73
2021/06/10 01:41:02;;;;;;;11.52;10.32;;;;;;;13.01;87.61;94235.75;736865;40;20067;-74
2021/06/10 01:41:33;;;;;;;10.90;9.63;;;;;;;13.11;87.23;94244.56;734317;40;20189;-74
2021/06/10 01:42:10;;;;;;;11.30;10.30;;;;;;;13.08;86.96;94236.41;738186;40;20039;-74
2021/06/10 01:42:43;;;;;;;10.38;9.38;;;;;;;13.10;86.88;94231.72;736717;40;20455;-75
2021/06/10 01:43:15;;;;;;;11.57;10.38;;;;;;;13.20;86.81;94244.16;739493;40;20043;-74
2021/06/10 01:43:47;;;;;;;11.07;10.05;;;;;;;13.15;86.64;94233.63;740269;40;20413;-75
2021/06/10 01:44:22;;;;;;;11.05;10.02;;;;;;;13.04;86.98;94240.50;741221;40;20356;-75
2021/06/10 01:44:54;;;;;;;13.00;11.68;;;;;;;12.84;87.58;94233.97;736430;40;20072;-75
2021/06/10 01:45:26;;;;;;;12.48;11.30;;;;;;;12.71;88.76;94230.84;736563;39;20059;-75
2021/06/10 01:45:57;;;;;;;12.15;10.98;;;;;;;12.60;88.50;94235.88;736952;40;20038;-75
2021/06/10 01:46:30;;;;;;;12.95;11.45;;;;;;;12.54;89.20;94231.59;740106;40;20089;-76
2021/06/10 01:47:00;;;;;;;11.73;10.63;;;;;;;12.48;89.49;94232.53;740090;40;20037;-75
2021/06/10 01:47:31;;;;;;;12.10;10.88;;;;;;;12.46;89.50;94239.03;740925;40;20040;-76
2021/06/10 01:48:02;;;;;;;11.45;10.45;;;;;;;12.60;89.70;94235.88;740723;39;20180;-75
2021/06/10 01:48:34;;;;;;;12.68;10.73;;;;;;;12.74;89.19;94233.78;741743;39;20044;-75
2021/06/10 01:49:06;;;;;;;11.48;10.25;;;;;;;12.83;88.95;94234.97;741760;39;20325;-75
2021/06/10 01:49:38;;;;;;;11.95;10.85;;;;;;;12.97;88.31;94227.63;733737;40;20043;-75
2021/06/10 01:50:10;;;;;;;10.98;9.80;;;;;;;13.04;87.73;94232.69;738051;39;20281;-74
2021/06/10 01:50:41;;;;;;;11.88;10.07;;;;;;;13.02;87.59;94227.72;734639;40;20040;-75
2021/06/10 01:51:12;;;;;;;11.07;10.07;;;;;;;12.85;87.80;94227.69;736828;39;20048;-73
2021/06/10 01:51:43;;;;;;;11.48;10.38;;;;;;;12.75;88.22;94232.75;742017;39;20044;-75
2021/06/10 01:52:14;;;;;;;11.77;10.63;;;;;;;12.59;88.89;94221.25;743112;39;20048;-75
2021/06/10 01:52:45;;;;;;;11.93;10.80;;;;;;;12.50;89.14;94227.06;742065;39;20031;-75
2021/06/10 01:53:17;;;;;;;14.55;10.75;;;;;;;12.44;89.61;94231.44;743792;39;20043;-75
2021/06/10 01:53:48;;;;;;;12.75;11.65;;;;;;;12.37;89.97;94228.16;741877;39;20717;-75
2021/06/10 01:54:20;;;;;;;13.73;12.48;;;;;;;12.33;90.65;94235.69;743363;39;20036;-75
2021/06/10 01:54:53;;;;;;;14.05;12.52;;;;;;;12.29;90.41;94228.53;740949;39;20059;-73
2021/06/10 01:55:28;;;;;;;13.55;12.15;;;;;;;12.25;90.58;94233.44;741633;39;20432;-75
2021/06/10 01:56:00;;;;;;;14.38;12.93;;;;;;;12.18;90.66;94223.16;737257;39;20202;-75
2021/06/10 01:56:34;;;;;;;13.80;12.50;;;;;;;12.18;90.66;94228.38;739255;39;20057;-75
2021/06/10 01:57:07;;;;;;;13.48;12.18;;;;;;;12.13;91.04;94224.88;739387;39;20039;-74
2021/06/10 01:57:39;;;;;;;14.32;13.00;;;;;;;12.15;91.10;94225.41;738910;39;20096;-75
2021/06/10 01:58:11;;;;;;;13.60;12.40;;;;;;;12.13;91.13;94225.66;734728;39;20113;-75
2021/06/10 01:58:44;;;;;;;13.40;12.10;;;;;;;12.19;91.06;94229.16;739873;39;20052;-75
2021/06/10 01:59:16;;;;;;;14.07;12.77;;;;;;;12.14;90.90;94227.22;739497;39;20095;-74
2021/06/10 01:59:48;;;;;;;13.93;11.57;;;;;;;12.23;90.91;94224.25;732839;39;20469;-74
2021/06/10 02:00:20;;;;;;;14.65;12.02;;;;;;;12.21;90.86;94222.69;738905;39;20102;-75
2021/06/10 02:00:52;;;;;;;13.57;12.27;;;;;;;12.20;90.92;94226.28;738246;39;20142;-75
2021/06/10 02:01:25;;;;;;;13.63;12.32;;;;;;;12.19;90.96;94229.94;742151;39;20042;-75
2021/06/10 02:01:59;;;;;;;13.77;12.57;;;;;;;12.16;91.10;94229.63;741178;39;20108;-75
2021/06/10 02:02:30;;;;;;;15.38;11.85;;;;;;;12.15;91.09;94228.00;741130;39;20052;-75
2021/06/10 02:03:01;;;;;;;13.60;12.18;;;;;;;12.13;91.22;94225.66;738299;39;20149;-74
2021/06/10 02:03:33;;;;;;;13.55;12.20;;;;;;;12.13;91.16;94225.66;736993;39;20133;-75
2021/06/10 02:04:04;;;;;;;13.73;12.43;;;;;;;12.18;91.35;94227.56;737395;39;20036;-75
2021/06/10 02:04:35;;;;;;;13.10;11.88;;;;;;;12.28;90.97;94227.75;738015;39;20108;-74
2021/06/10 02:05:08;;;;;;;14.68;12.48;;;;;;;12.29;90.78;94228.53;734496;39;20304;-75
2021/06/10 02:05:42;;;;;;;14.77;11.98;;;;;;;12.28;90.96;94222.53;740023;39;20515;-75
2021/06/10 02:06:13;;;;;;;14.75;13.20;;;;;;;12.28;90.89;94225.13;740093;39;20121;-75
2021/06/10 02:06:44;;;;;;;13.23;11.98;;;;;;;12.23;90.95;94221.66;740574;39;20121;-75
2021/06/10 02:07:15;;;;;;;13.68;12.30;;;;;;;12.30;90.78;94227.53;741508;39;20078;-74
2021/06/10 02:07:47;;;;;;;12.85;11.65;;;;;;;12.55;89.57;94224.56;739311;39;20504;-75
2021/06/10 02:08:20;;;;;;;11.23;10.20;;;;;;;12.68;89.23;94223.50;741235;39;20063;-74
2021/06/10 02:08:51;;;;;;;11.88;10.82;;;;;;;12.67;88.65;94220.09;739883;39;20099;-74
2021/06/10 02:09:22;;;;;;;11.13;10.02;;;;;;;12.77;88.30;94222.06;738721;39;20149;-74
2021/06/10 02:09:56;;;;;;;10.70;9.70;;;;;;;12.89;87.46;94217.56;739759;39;20224;-75
2021/06/10 02:10:27;;;;;;;11.10;10.10;;;;;;;12.89;87.39;94217.56;737556;40;22446;-74
2021/06/10 02:10:59;;;;;;;12.13;9.32;;;;;;;12.90;87.18;94213.91;729346;40;20040;-74
2021/06/10 02:11:32;;;;;;;12.07;9.93;;;;;;;12.70;87.53;94224.03;735379;40;20488;-75
2021/06/10 02:12:04;;;;;;;10.85;9.75;;;;;;;12.59;88.14;94218.66;738580;40;20041;-75
2021/06/10 02:12:34;;;;;;;10.98;9.93;;;;;;;12.59;88.25;94229.09;737782;39;20576;-73
2021/06/10 02:13:07;;;;;;;10.60;9.60;;;;;;;12.52;88.42;94206.78;741264;39;20056;-75
2021/06/10 02:13:43;;;;;;;11.38;10.40;;;;;;;12.47;88.73;94225.75;739878;39;20252;-75
2021/06/10 02:14:18;;;;;;;12.57;11.18;;;;;;;12.32;89.58;94226.25;741696;39;20063;-76
2021/06/10 02:14:49;;;;;;;13.65;12.23;;;;;;;12.24;90.07;94226.66;740281;39;20121;-75
2021/06/10 02:15:22;;;;;;;13.07;11.80;;;;;;;12.21;90.43;94220.06;740975;39;20043;-74
2021/06/10 02:16:01;;;;;;;16.02;12.98;;;;;;;12.22;90.62;94218.25;738263;39;20044;-74
2021/06/10 02:16:33;;;;;;;15.35;13.88;;;;;;;12.13;90.94;94209.22;738294;39;20048;-75
2021/06/10 02:17:05;;;;;;;15.77;14.35;;;;;;;12.13;91.25;94220.44;734970;39;20539;-74
2021/06/10 02:17:42;;;;;;;15.50;14.10;;;;;;;12.14;91.34;94222.00;737482;39;20111;-73
2021/06/10 02:18:13;;;;;;;18.02;15.27;;;;;;;12.12;91.47;94218.88;740926;39;20148;-74
2021/06/10 02:18:46;;;;;;;15.82;14.35;;;;;;;12.13;91.61;94219.66;740204;39;20489;-75
2021/06/10 02:19:17;;;;;;;19.67;15.43;;;;;;;12.17;91.56;94220.75;739854;39;20066;-74
2021/06/10 02:19:48;;;;;;;18.63;16.40;;;;;;;12.14;91.68;94219.41;738658;39;20152;-74
2021/06/10 02:20:20;;;;;;;16.38;14.82;;;;;;;12.18;91.56;94222.38;739620;39;20308;-74
2021/06/10 02:20:51;;;;;;;17.02;15.45;;;;;;;12.19;91.68;94218.72;737998;40;20228;-76
2021/06/10 02:21:22;;;;;;;16.42;14.85;;;;;;;12.26;91.16;94214.13;731209;40;20033;-76
2021/06/10 02:21:52;;;;;;;15.75;14.02;;;;;;;12.23;91.04;94219.03;733411;40;20812;-76
2021/06/10 02:22:22;;;;;;;15.00;13.65;;;;;;;12.29;91.17;94228.53;732181;40;20094;-76
2021/06/10 02:22:53;;;;;;;14.50;13.00;;;;;;;12.32;91.01;94222.84;738383;40;20154;-77
2021/06/10 02:23:23;;;;;;;14.00;12.80;;;;;;;12.28;90.83;94219.13;738404;40;20025;-77
2021/06/10 02:23:54;;;;;;;14.30;12.85;;;;;;;12.26;90.73;94216.75;736248;40;20044;-74
2021/06/10 02:24:25;;;;;;;15.27;13.48;;;;;;;12.19;90.93;94214.28;738044;40;20039;-77
2021/06/10 02:24:55;;;;;;;14.98;13.57;;;;;;;12.21;90.98;94222.69;736841;40;20041;-76
2021/06/10 02:25:26;;;;;;;13.45;12.15;;;;;;;12.40;90.21;94220.66;738075;40;20072;-77
2021/06/10 02:25:56;;;;;;;13.07;11.68;;;;;;;12.57;89.45;94217.31;740988;40;20040;-77
2021/06/10 02:26:27;;;;;;;14.55;11.05;;;;;;;12.58;88.84;94219.69;739913;40;20052;-76
2021/06/10 02:26:57;;;;;;;12.38;11.10;;;;;;;12.49;88.86;94223.69;742105;39;20069;-73
2021/06/10 02:27:28;;;;;;;12.52;10.70;;;;;;;12.56;88.41;94224.34;742213;39;20060;-76
2021/06/10 02:27:59;;;;;;;12.45;10.73;;;;;;;12.55;88.28;94227.97;739446;39;20644;-77
2021/06/10 02:28:31;;;;;;;11.52;10.45;;;;;;;12.62;88.04;94223.41;733345;40;20048;-75
2021/06/10 02:29:02;;;;;;;12.05;10.93;;;;;;;12.50;88.64;94224.47;738314;40;20046;-75
2021/06/10 02:29:33;;;;;;;12.80;11.52;;;;;;;12.44;88.78;94227.00;736838;40;20592;-76
2021/06/10 02:30:06;;;;;;;12.43;11.32;;;;;;;12.34;89.45;94221.59;738935;40;20068;-77
2021/06/10 02:30:37;;;;;;;14.27;13.00;;;;;;;12.20;90.00;94223.69;736219;39;20242;-77
2021/06/10 02:31:09;;;;;;;15.70;14.10;;;;;;;12.01;90.62;94204.06;737932;39;20025;-75
2021/06/10 02:31:40;;;;;;;15.02;13.70;;;;;;;12.15;90.82;94218.41;737396;40;20166;-77
2021/06/10 02:32:16;;;;;;;15.93;14.50;;;;;;;12.08;91.03;94222.94;738085;40;20055;-76
2021/06/10 02:32:47;;;;;;;15.40;14.02;;;;;;;12.06;91.00;94214.53;734856;40;20045;-76
2021/06/10 02:33:17;;;;;;;17.23;14.18;;;;;;;12.07;91.12;94218.75;735848;39;20231;-76
2021/06/10 02:33:48;;;;;;;15.48;14.07;;;;;;;12.03;91.49;94224.66;737065;39;20174;-76
2021/06/10 02:34:19;;;;;;;16.70;15.07;;;;;;;11.96;91.72;94220.38;739179;40;20044;-76
2021/06/10 02:34:50;;;;;;;16.55;14.82;;;;;;;12.05;91.63;94223.41;739850;39;20197;-77
2021/06/10 02:35:26;;;;;;;16.58;15.02;;;;;;;11.91;91.76;94214.25;737193;39;20046;-76